createdAt,value
2017-05-11T00:06:23.419Z,88.52
2017-05-11T00:11:19.636Z,89.00
2017-05-11T00:16:16.722Z,88.90
2017-05-11T00:21:13.126Z,89.85
2017-05-11T00:26:10.030Z,89.52
2017-05-11T00:31:05.619Z,89.71
2017-05-11T00:36:04.459Z,90.37
2017-05-11T00:41:03.689Z,90.37
2017-05-11T00:45:58.686Z,90.66
2017-05-11T00:50:54.336Z,91.33
2017-05-11T00:55:52.717Z,90.66
2017-05-11T01:00:48.401Z,91.13
2017-05-11T01:05:44.045Z,90.85
2017-05-11T01:10:40.427Z,91.42
2017-05-11T01:15:36.767Z,91.94
2017-05-11T01:20:36.392Z,92.23
2017-05-11T01:25:31.323Z,91.94
2017-05-11T01:30:29.929Z,91.94
2017-05-11T01:35:28.805Z,91.75
2017-05-11T01:40:23.986Z,91.85
2017-05-11T02:00:22.135Z,91.94
2017-05-11T02:15:22.412Z,91.94
2017-05-11T02:20:19.170Z,92.23
2017-05-11T02:25:16.929Z,92.13
2017-05-11T02:30:14.613Z,92.32
2017-05-11T02:35:10.668Z,92.61
2017-05-11T02:40:06.732Z,91.75
2017-05-11T02:45:02.875Z,92.23
2017-05-11T02:49:58.893Z,92.42
2017-05-11T02:54:55.161Z,92.71
2017-05-11T02:59:50.889Z,93.13
2017-05-11T03:04:48.980Z,92.61
2017-05-11T03:09:47.100Z,93.08
2017-05-11T03:14:42.677Z,92.51
2017-05-11T03:24:43.071Z,93.41
2017-05-11T03:29:39.929Z,92.85
2017-05-11T03:34:41.054Z,93.60
2017-05-11T03:39:36.582Z,92.71
2017-05-11T03:44:33.029Z,93.08
2017-05-11T03:49:28.657Z,93.27
2017-05-11T03:54:24.549Z,93.99
2017-05-11T03:59:20.327Z,93.99
2017-05-11T04:04:16.630Z,94.46
2017-05-11T04:09:13.224Z,93.80
2017-05-11T04:14:08.908Z,93.80
2017-05-11T04:19:05.929Z,93.23
2017-05-11T04:24:01.850Z,93.75
2017-05-11T04:28:57.838Z,92.32
2017-05-11T04:33:54.841Z,89.71
2017-05-11T04:38:50.929Z,87.28
2017-05-11T04:48:49.939Z,87.19
2017-05-11T04:53:45.620Z,87.85
2017-05-11T04:58:41.373Z,87.95
2017-05-11T05:03:37.197Z,88.04
2017-05-11T05:08:32.785Z,88.04
2017-05-11T05:13:28.700Z,88.13
2017-05-11T05:18:24.478Z,87.95
2017-05-11T05:23:20.431Z,87.32
2017-05-11T05:33:15.832Z,86.85
2017-05-11T05:38:11.513Z,86.47
2017-05-11T05:43:07.818Z,86.51
2017-05-11T05:48:03.748Z,85.37
2017-05-11T05:52:59.642Z,85.94
2017-05-11T05:57:55.659Z,84.70
2017-05-11T06:02:51.052Z,85.56
2017-05-11T06:07:46.961Z,85.66
2017-05-11T06:12:42.821Z,86.08
2017-05-11T06:17:38.696Z,84.75
2017-05-11T06:22:35.741Z,85.80
2017-05-11T06:27:32.348Z,84.65
2017-05-11T06:32:28.037Z,84.69
2017-05-11T06:37:24.297Z,84.88
2017-05-11T06:42:20.240Z,83.36
2017-05-11T06:47:16.156Z,82.35
2017-05-11T06:52:12.298Z,82.35
2017-05-11T07:02:08.419Z,82.83
2017-05-11T07:07:04.526Z,81.25
2017-05-11T07:12:00.123Z,80.87
2017-05-11T07:16:56.135Z,80.58
2017-05-11T07:21:52.245Z,79.82
2017-05-11T07:31:47.735Z,79.10
2017-05-11T07:36:43.742Z,77.23
2017-05-11T07:41:40.676Z,76.08
2017-05-11T07:46:36.668Z,76.12
2017-05-11T07:51:33.302Z,74.34
2017-05-11T07:56:30.904Z,72.75
2017-05-11T08:01:28.483Z,70.40
2017-05-11T08:06:26.352Z,68.17
2017-05-11T08:11:24.437Z,65.14
2017-05-11T08:16:21.666Z,60.05
2017-05-11T08:21:22.142Z,60.70
2017-05-11T08:31:20.376Z,57.21
2017-05-11T08:36:16.653Z,57.62
2017-05-11T08:41:14.854Z,53.35
2017-05-11T08:46:11.825Z,56.73
2017-05-11T08:51:07.106Z,56.66
2017-05-11T08:56:02.390Z,55.44
2017-05-11T09:00:57.949Z,55.27
2017-05-11T09:05:54.930Z,55.69
2017-05-11T09:10:51.904Z,54.12
2017-05-11T09:15:48.170Z,52.34
2017-05-11T09:20:45.609Z,50.15
2017-05-11T09:25:42.479Z,49.24
2017-05-11T09:30:39.935Z,49.05
2017-05-11T09:35:36.672Z,47.12
2017-05-11T09:40:33.028Z,48.44
2017-05-11T09:45:29.142Z,44.27
2017-05-11T09:50:25.433Z,45.70
2017-05-11T09:55:22.422Z,45.14
2017-05-11T10:00:18.293Z,45.68
2017-05-11T10:05:14.112Z,47.22
2017-05-11T10:10:09.958Z,47.89
2017-05-11T10:15:08.563Z,45.60
2017-05-11T10:20:04.408Z,45.24
2017-05-11T10:24:59.842Z,46.56
2017-05-11T10:29:56.223Z,45.51
2017-05-11T10:34:52.597Z,47.22
2017-05-11T10:39:47.946Z,46.11
2017-05-11T10:44:46.641Z,45.07
2017-05-11T10:49:42.278Z,45.34
2017-05-11T10:54:38.488Z,43.84
2017-05-11T10:59:35.813Z,43.91
2017-05-11T11:04:31.886Z,42.19
2017-05-11T11:09:28.823Z,41.33
2017-05-11T11:14:26.782Z,44.01
2017-05-11T11:19:22.348Z,43.49
2017-05-11T11:24:22.484Z,43.47
2017-05-11T11:29:20.287Z,41.94
2017-05-11T11:34:16.919Z,43.85
2017-05-11T11:39:12.790Z,42.19
2017-05-11T11:44:08.074Z,42.50
2017-05-11T11:49:04.269Z,42.16
2017-05-11T11:53:58.624Z,41.77
2017-05-11T11:58:56.617Z,41.67
2017-05-11T12:03:49.357Z,42.19
2017-05-11T12:08:43.460Z,44.12
2017-05-11T12:13:37.152Z,45.65
2017-05-11T12:23:36.737Z,44.42
2017-05-11T12:28:31.653Z,43.84
2017-05-11T12:33:28.206Z,43.84
2017-05-11T12:38:23.787Z,44.03
2017-05-11T12:43:20.587Z,45.09
2017-05-11T12:48:18.575Z,47.89
2017-05-11T12:53:13.046Z,45.55
2017-05-11T12:58:10.125Z,46.33
2017-05-11T13:03:05.582Z,47.67
2017-05-11T13:08:01.383Z,47.00
2017-05-11T13:12:58.335Z,47.67
2017-05-11T13:17:54.298Z,47.19
2017-05-11T13:22:49.985Z,46.90
2017-05-11T13:27:46.197Z,47.67
2017-05-11T13:32:41.742Z,46.61
2017-05-11T13:37:37.793Z,46.90
2017-05-11T13:42:33.361Z,47.77
2017-05-11T13:47:29.019Z,49.48
2017-05-11T13:52:25.561Z,49.41
2017-05-11T13:57:20.911Z,48.83
2017-05-11T14:02:16.607Z,48.93
2017-05-11T14:07:12.599Z,49.51
2017-05-11T14:12:08.583Z,48.42
2017-05-11T14:17:04.597Z,48.16
2017-05-11T14:22:00.718Z,46.90
2017-05-11T14:26:56.619Z,46.03
2017-05-11T14:31:53.614Z,44.49
2017-05-11T14:36:49.437Z,45.26
2017-05-11T14:41:45.061Z,44.18
2017-05-11T14:46:41.332Z,44.56
2017-05-11T14:51:37.183Z,44.29
2017-05-11T14:56:33.406Z,44.46
2017-05-11T15:01:29.398Z,44.37
2017-05-11T15:06:25.337Z,44.76
2017-05-11T15:11:22.121Z,45.14
2017-05-11T15:16:18.020Z,44.85
2017-05-11T15:21:14.025Z,45.82
2017-05-11T15:26:09.640Z,46.01
2017-05-11T15:31:07.268Z,46.59
2017-05-11T15:36:02.827Z,46.78
2017-05-11T15:40:58.503Z,46.86
2017-05-11T15:45:54.383Z,47.72
2017-05-11T15:50:52.492Z,48.30
2017-05-11T15:55:47.686Z,48.01
2017-05-11T16:00:43.814Z,47.72
2017-05-11T16:05:39.478Z,47.72
2017-05-11T16:10:35.425Z,48.40
2017-05-11T16:15:31.488Z,49.27
2017-05-11T16:20:27.260Z,49.27
2017-05-11T16:25:27.071Z,49.75
2017-05-11T16:30:22.178Z,49.84
2017-05-11T16:35:18.120Z,50.32
2017-05-11T16:40:14.398Z,50.62
2017-05-11T16:45:11.368Z,51.36
2017-05-11T16:50:06.815Z,51.26
2017-05-11T16:55:02.449Z,52.33
2017-05-11T16:59:58.165Z,53.09
2017-05-11T17:04:54.066Z,53.09
2017-05-11T17:09:49.921Z,52.91
2017-05-11T17:14:45.714Z,53.19
2017-05-11T17:19:41.671Z,53.29
2017-05-11T17:24:39.614Z,54.16
2017-05-11T17:29:34.530Z,54.32
2017-05-11T17:34:30.277Z,55.09
2017-05-11T17:39:26.601Z,56.05
2017-05-11T17:44:24.103Z,55.67
2017-05-11T17:49:19.558Z,56.35
2017-05-11T17:54:15.625Z,56.92
2017-05-11T17:59:12.416Z,56.35
2017-05-11T18:04:11.804Z,57.76
2017-05-11T18:09:06.713Z,57.67
2017-05-11T18:14:04.385Z,58.34
2017-05-11T18:19:02.332Z,59.01
2017-05-11T18:23:58.372Z,59.66
2017-05-11T18:28:55.685Z,60.24
2017-05-11T18:33:58.207Z,61.39
2017-05-11T18:38:52.937Z,61.68
2017-05-11T18:43:48.704Z,62.32
2017-05-11T18:48:44.683Z,62.06
2017-05-11T18:53:42.749Z,63.70
2017-05-11T18:58:38.593Z,67.32
2017-05-11T19:03:34.649Z,67.51
2017-05-11T19:08:30.880Z,69.63
2017-05-11T19:13:26.196Z,77.29
2017-05-11T19:23:27.091Z,85.24
2017-05-11T19:33:23.751Z,87.01
2017-05-11T19:38:20.096Z,87.98
2017-05-11T19:43:16.328Z,87.88
2017-05-11T19:48:11.976Z,88.55
2017-05-11T19:53:08.263Z,89.12
2017-05-11T19:58:04.522Z,89.61
2017-05-11T20:03:00.334Z,90.08
2017-05-11T20:07:56.533Z,89.32
2017-05-11T20:12:53.113Z,88.84
2017-05-11T20:17:51.957Z,88.55
2017-05-11T20:22:46.910Z,88.35
2017-05-11T20:27:47.827Z,88.35
2017-05-11T20:32:43.331Z,88.45
2017-05-11T20:37:40.071Z,87.40
2017-05-11T20:42:37.947Z,87.21
2017-05-11T20:47:33.387Z,87.59
2017-05-11T20:52:34.671Z,86.72
2017-05-11T20:57:30.244Z,86.82
2017-05-11T21:02:27.137Z,86.72
2017-05-11T21:07:23.479Z,86.92
2017-05-11T21:12:22.144Z,86.72
2017-05-11T21:17:17.078Z,87.40
2017-05-11T21:22:13.052Z,85.77
2017-05-11T21:27:08.830Z,85.48
2017-05-11T21:32:04.714Z,85.48
2017-05-11T21:37:00.263Z,86.34
2017-05-11T21:41:56.023Z,86.05
2017-05-11T21:46:54.558Z,86.68
2017-05-11T21:51:52.844Z,86.88
2017-05-11T21:56:48.035Z,87.84
2017-05-11T22:01:43.857Z,87.35
2017-05-11T22:06:39.500Z,88.51
2017-05-11T22:11:36.631Z,86.58
2017-05-11T22:16:32.177Z,87.45
2017-05-11T22:21:27.963Z,87.26
2017-05-11T22:26:24.291Z,87.79
2017-05-11T22:31:19.882Z,87.45
2017-05-11T22:36:15.674Z,87.12
2017-05-11T22:41:11.413Z,87.31
2017-05-11T22:46:06.893Z,88.08
2017-05-11T22:51:03.000Z,87.31
2017-05-11T22:55:58.833Z,86.83
2017-05-11T23:00:54.965Z,86.74
2017-05-11T23:05:50.930Z,86.54
2017-05-11T23:10:46.699Z,87.31
2017-05-11T23:15:42.967Z,86.16
2017-05-11T23:20:38.655Z,86.45
2017-05-11T23:25:34.549Z,86.40
2017-05-11T23:30:30.393Z,85.49
2017-05-11T23:35:26.077Z,85.34
2017-05-11T23:40:21.810Z,85.44
2017-05-11T23:45:17.522Z,85.49
2017-05-11T23:50:12.947Z,85.21
2017-05-11T23:55:11.366Z,85.44
